Daska Weather



Daska's Current Weather

Temprature 35o haze

haze

Rain: 0 %

Min Temprature35o
Max Temprature35o
Humidity41
Wind Speed2.1 m/h
Sun Rise05:01:01
Sun Set19:13:02
Current Time: 05-Jul-2020 17:33:25
Lat/Lon: 32.32, 74.35




Daska's Geo Location



Daska's Weather Forecast

Time Overall Temp Min Temp Max Temp Humidity Wind Speed Rain
05-Jul-2020 (Sun)
20:00:00 clear sky 34.440 33.860 34.440 38 2.29 m/h 0 %
23:00:00 clear sky 33.770 33.430 33.770 33 3.66 m/h 0 %
06-Jul-2020 (Mon)
02:00:00 scattered clouds 31.920 31.710 31.920 39 1.47 m/h 0 %
05:00:00 scattered clouds 30.990 30.960 30.990 39 1.35 m/h 0 %
08:00:00 clear sky 35.450 35.450 35.450 30 0.72 m/h 0 %
11:00:00 clear sky 40.030 40.030 40.030 23 2.65 m/h 0 %
14:00:00 clear sky 43.370 43.370 43.370 18 1.97 m/h 0 %
17:00:00 clear sky 43.330 43.330 43.330 17 2.96 m/h 0 %
20:00:00 clear sky 40.480 40.480 40.480 20 2.9 m/h 0 %
23:00:00 clear sky 38.460 38.460 38.460 22 2.26 m/h 0 %
07-Jul-2020 (Tue)
02:00:00 few clouds 36.730 36.730 36.730 24 1.83 m/h 0 %
05:00:00 scattered clouds 35.090 35.090 35.090 29 4.65 m/h 0 %
08:00:00 overcast clouds 35.780 35.780 35.780 38 5.41 m/h 0 %
11:00:00 broken clouds 41.580 41.580 41.580 25 3.57 m/h 0 %
14:00:00 overcast clouds 44.990 44.990 44.990 17 1.14 m/h 0 %
17:00:00 overcast clouds 43.450 43.450 43.450 18 0.29 m/h 0 %
20:00:00 overcast clouds 40.860 40.860 40.860 22 2.69 m/h 0 %
23:00:00 broken clouds 38.760 38.760 38.760 29 4.26 m/h 0 %
08-Jul-2020 (Wed)
02:00:00 light rain 35.670 35.670 35.670 40 4.85 m/h 58 %
05:00:00 light rain 32.440 32.440 32.440 54 4.66 m/h 24 %
08:00:00 light rain 34.970 34.970 34.970 47 5.73 m/h 49 %
11:00:00 scattered clouds 40.050 40.050 40.050 34 3.52 m/h 0 %
14:00:00 clear sky 44.780 44.780 44.780 21 0.98 m/h 0 %
17:00:00 few clouds 44.000 44.000 44.000 19 0.8 m/h 0 %
20:00:00 broken clouds 40.150 40.150 40.150 31 4.95 m/h 0 %
23:00:00 scattered clouds 38.270 38.270 38.270 35 4.27 m/h 0 %
09-Jul-2020 (Thu)
02:00:00 few clouds 35.100 35.100 35.100 45 4.9 m/h 0 %
05:00:00 clear sky 32.830 32.830 32.830 53 5.48 m/h 0 %
08:00:00 clear sky 34.710 34.710 34.710 49 5.57 m/h 0 %
11:00:00 clear sky 41.200 41.200 41.200 30 2.52 m/h 0 %
14:00:00 clear sky 45.360 45.360 45.360 20 1.33 m/h 0 %
17:00:00 few clouds 45.070 45.070 45.070 18 0.95 m/h 0 %
20:00:00 light rain 42.280 42.280 42.280 22 1.61 m/h 16 %
23:00:00 light rain 37.040 37.040 37.040 37 5.12 m/h 49 %
10-Jul-2020 (Fri)
02:00:00 light rain 32.480 32.480 32.480 60 6.74 m/h 27 %
05:00:00 light rain 30.630 30.630 30.630 66 5.43 m/h 39 %
08:00:00 few clouds 32.780 32.780 32.780 56 4.98 m/h 0 %
11:00:00 scattered clouds 37.280 37.280 37.280 41 4.16 m/h 0 %
14:00:00 clear sky 41.650 41.650 41.650 29 1.93 m/h 0 %
17:00:00 few clouds 41.770 41.770 41.770 26 0.66 m/h 0 %

Famous Cities (60)